sensor_id;sensor_type;location;lat;lon;timestamp;pressure;altitude;pressure_sealevel;temperature;humidity
25855;BME280;13680;49.936;11.344;2022-08-05T00:01:13;96449.78;;;21.89;54.49
25855;BME280;13680;49.936;11.344;2022-08-05T00:03:39;96450.56;;;21.86;54.43
25855;BME280;13680;49.936;11.344;2022-08-05T00:06:05;96444.69;;;21.84;54.01
25855;BME280;13680;49.936;11.344;2022-08-05T00:08:30;96449.38;;;21.83;53.78
25855;BME280;13680;49.936;11.344;2022-08-05T00:11:00;96444.66;;;21.77;54.12
25855;BME280;13680;49.936;11.344;2022-08-05T00:13:27;96438.38;;;21.76;54.01
25855;BME280;13680;49.936;11.344;2022-08-05T00:15:53;96434.44;;;21.73;54.50
25855;BME280;13680;49.936;11.344;2022-08-05T00:18:18;96435.59;;;21.65;54.72
25855;BME280;13680;49.936;11.344;2022-08-05T00:20:44;96433.94;;;21.57;55.26
25855;BME280;13680;49.936;11.344;2022-08-05T00:23:09;96426.91;;;21.56;55.09
25855;BME280;13680;49.936;11.344;2022-08-05T00:25:34;96434.28;;;21.52;55.74
25855;BME280;13680;49.936;11.344;2022-08-05T00:27:59;96424.91;;;21.53;55.48
25855;BME280;13680;49.936;11.344;2022-08-05T00:30:25;96426.03;;;21.45;55.50
25855;BME280;13680;49.936;11.344;2022-08-05T00:32:50;96424.44;;;21.44;55.44
25855;BME280;13680;49.936;11.344;2022-08-05T00:35:16;96427.56;;;21.42;55.55
25855;BME280;13680;49.936;11.344;2022-08-05T00:37:41;96420.09;;;21.39;55.41
25855;BME280;13680;49.936;11.344;2022-08-05T00:40:07;96419.69;;;21.33;55.73
25855;BME280;13680;49.936;11.344;2022-08-05T00:42:34;96422.00;;;21.31;56.03
25855;BME280;13680;49.936;11.344;2022-08-05T00:47:26;96420.84;;;21.32;55.96
25855;BME280;13680;49.936;11.344;2022-08-05T00:49:52;96424.31;;;21.29;56.11
25855;BME280;13680;49.936;11.344;2022-08-05T00:52:20;96425.81;;;21.19;56.24
25855;BME280;13680;49.936;11.344;2022-08-05T00:54:47;96424.63;;;21.17;56.24
25855;BME280;13680;49.936;11.344;2022-08-05T00:57:12;96413.28;;;21.15;56.57
25855;BME280;13680;49.936;11.344;2022-08-05T00:59:37;96424.50;;;21.06;56.93
25855;BME280;13680;49.936;11.344;2022-08-05T01:02:03;96420.19;;;21.05;56.76
25855;BME280;13680;49.936;11.344;2022-08-05T01:04:28;96418.63;;;21.00;56.98
25855;BME280;13680;49.936;11.344;2022-08-05T01:06:54;96422.50;;;20.99;56.89
25855;BME280;13680;49.936;11.344;2022-08-05T01:09:19;96412.34;;;20.96;57.20
25855;BME280;13680;49.936;11.344;2022-08-05T01:11:47;96419.34;;;20.93;57.06
25855;BME280;13680;49.936;11.344;2022-08-05T01:14:18;96414.22;;;20.92;57.02
25855;BME280;13680;49.936;11.344;2022-08-05T01:16:52;96416.91;;;20.85;57.56
25855;BME280;13680;49.936;11.344;2022-08-05T01:29:44;96412.19;;;20.82;58.16
25855;BME280;13680;49.936;11.344;2022-08-05T01:32:15;96405.91;;;20.77;58.42
25855;BME280;13680;49.936;11.344;2022-08-05T01:34:50;96401.53;;;20.73;58.63
25855;BME280;13680;49.936;11.344;2022-08-05T01:37:22;96401.91;;;20.71;58.75
25855;BME280;13680;49.936;11.344;2022-08-05T01:39:49;96400.34;;;20.70;58.63
25855;BME280;13680;49.936;11.344;2022-08-05T01:42:19;96402.34;;;20.73;58.54
25855;BME280;13680;49.936;11.344;2022-08-05T01:44:46;96399.19;;;20.71;58.57
25855;BME280;13680;49.936;11.344;2022-08-05T01:47:16;96404.53;;;20.64;59.27
25855;BME280;13680;49.936;11.344;2022-08-05T01:49:44;96402.56;;;20.61;nan
25855;BME280;13680;49.936;11.344;2022-08-05T01:52:10;96401.41;;;20.62;59.42
25855;BME280;13680;49.936;11.344;2022-08-05T01:54:48;96398.69;;;20.62;59.17
25855;BME280;13680;49.936;11.344;2022-08-05T01:57:23;96397.03;;;20.54;59.60
25855;BME280;13680;49.936;11.344;2022-08-05T01:59:51;96397.78;;;20.51;59.82
25855;BME280;13680;49.936;11.344;2022-08-05T02:02:20;96400.50;;;20.51;59.79
25855;BME280;13680;49.936;11.344;2022-08-05T02:04:46;96403.25;;;20.51;59.56
25855;BME280;13680;49.936;11.344;2022-08-05T02:07:13;96397.78;;;20.51;59.73
25855;BME280;13680;49.936;11.344;2022-08-05T02:09:38;96402.81;;;20.45;59.97
25855;BME280;13680;49.936;11.344;2022-08-05T02:15:04;96400.41;;;20.43;60.08
25855;BME280;13680;49.936;11.344;2022-08-05T02:17:37;96405.09;;;20.43;60.20
25855;BME280;13680;49.936;11.344;2022-08-05T02:20:10;96399.22;;;20.41;60.22
25855;BME280;13680;49.936;11.344;2022-08-05T02:22:41;96400.03;;;20.41;60.27
25855;BME280;13680;49.936;11.344;2022-08-05T02:25:13;96403.09;;;20.36;60.36
25855;BME280;13680;49.936;11.344;2022-08-05T02:27:41;96407.69;;;20.32;60.67
25855;BME280;13680;49.936;11.344;2022-08-05T02:30:09;96407.25;;;20.26;61.22
25855;BME280;13680;49.936;11.344;2022-08-05T02:32:37;96402.25;;;20.32;60.72
25855;BME280;13680;49.936;11.344;2022-08-05T02:35:05;96400.69;;;20.31;60.83
25855;BME280;13680;49.936;11.344;2022-08-05T02:37:34;96398.63;;;20.24;61.16
25855;BME280;13680;49.936;11.344;2022-08-05T02:40:02;96406.47;;;20.26;61.27
25855;BME280;13680;49.936;11.344;2022-08-05T02:42:29;96395.13;;;20.24;61.22
25855;BME280;13680;49.936;11.344;2022-08-05T02:44:57;96400.50;;;20.17;61.65
25855;BME280;13680;49.936;11.344;2022-08-05T02:47:24;96401.34;;;20.21;61.57
25855;BME280;13680;49.936;11.344;2022-08-05T02:49:50;96399.78;;;20.20;61.51
25855;BME280;13680;49.936;11.344;2022-08-05T02:52:17;96389.63;;;20.20;61.20
25855;BME280;13680;49.936;11.344;2022-08-05T02:54:43;96399.78;;;20.20;61.39
25855;BME280;13680;49.936;11.344;2022-08-05T02:57:12;96391.97;;;20.22;61.39
25855;BME280;13680;49.936;11.344;2022-08-05T02:59:41;96399.34;;;20.18;61.58
25855;BME280;13680;49.936;11.344;2022-08-05T03:02:06;96403.56;;;20.11;61.71
25855;BME280;13680;49.936;11.344;2022-08-05T03:04:33;96398.38;;;20.03;62.21
25855;BME280;13680;49.936;11.344;2022-08-05T03:07:00;96394.16;;;20.09;62.11
25855;BME280;13680;49.936;11.344;2022-08-05T03:09:26;96396.00;;;20.01;62.30
25855;BME280;13680;49.936;11.344;2022-08-05T03:11:51;96393.28;;;20.01;62.28
25855;BME280;13680;49.936;11.344;2022-08-05T03:14:17;96382.78;;;20.03;62.21
25855;BME280;13680;49.936;11.344;2022-08-05T03:16:42;96385.09;;;20.01;62.77
25855;BME280;13680;49.936;11.344;2022-08-05T03:19:08;96384.38;;;20.04;62.51
25855;BME280;13680;49.936;11.344;2022-08-05T03:21:33;96384.72;;;20.03;62.58
25855;BME280;13680;49.936;11.344;2022-08-05T03:23:59;96379.25;;;19.99;62.79
25855;BME280;13680;49.936;11.344;2022-08-05T03:26:25;96383.94;;;20.02;62.67
25855;BME280;13680;49.936;11.344;2022-08-05T03:28:50;96372.59;;;20.00;62.65
25855;BME280;13680;49.936;11.344;2022-08-05T03:31:16;96374.13;;;19.98;62.73
25855;BME280;13680;49.936;11.344;2022-08-05T03:33:41;96376.13;;;20.01;62.81
25855;BME280;13680;49.936;11.344;2022-08-05T03:36:07;96373.03;;;20.02;62.73
25855;BME280;13680;49.936;11.344;2022-08-05T03:38:32;96382.00;;;20.03;62.92
25855;BME280;13680;49.936;11.344;2022-08-05T03:40:57;96397.69;;;20.09;62.57
25855;BME280;13680;49.936;11.344;2022-08-05T03:43:23;96456.69;;;20.18;61.89
25855;BME280;13680;49.936;11.344;2022-08-05T03:45:51;96434.03;;;20.82;59.64
25855;BME280;13680;49.936;11.344;2022-08-05T03:48:19;96403.59;;;21.24;58.75
25855;BME280;13680;49.936;11.344;2022-08-05T03:50:54;96417.75;;;21.37;58.15
25855;BME280;13680;49.936;11.344;2022-08-05T03:53:34;96418.28;;;21.54;57.24
25855;BME280;13680;49.936;11.344;2022-08-05T03:56:16;96420.69;;;21.59;58.08
25855;BME280;13680;49.936;11.344;2022-08-05T03:58:47;96425.03;;;21.67;57.38
25855;BME280;13680;49.936;11.344;2022-08-05T04:01:14;96415.28;;;21.66;57.64
25855;BME280;13680;49.936;11.344;2022-08-05T04:03:43;96415.66;;;21.68;57.68
25855;BME280;13680;49.936;11.344;2022-08-05T04:06:11;96416.00;;;21.63;58.21
25855;BME280;13680;49.936;11.344;2022-08-05T04:08:37;96433.19;;;21.60;58.07
25855;BME280;13680;49.936;11.344;2022-08-05T04:11:05;96427.69;;;21.56;58.50
25855;BME280;13680;49.936;11.344;2022-08-05T04:13:32;96426.97;;;21.63;58.08
25855;BME280;13680;49.936;11.344;2022-08-05T04:15:57;96435.63;;;21.69;58.31
25855;BME280;13680;49.936;11.344;2022-08-05T04:18:23;96437.13;;;21.63;59.11
25855;BME280;13680;49.936;11.344;2022-08-05T04:20:56;96438.75;;;21.71;59.42
25855;BME280;13680;49.936;11.344;2022-08-05T04:23:24;96434.88;;;21.76;58.93
25855;BME280;13680;49.936;11.344;2022-08-05T04:25:50;96434.91;;;21.79;58.55
25855;BME280;13680;49.936;11.344;2022-08-05T04:28:17;96441.09;;;21.72;59.38
25855;BME280;13680;49.936;11.344;2022-08-05T04:30:43;96440.38;;;21.83;58.83
25855;BME280;13680;49.936;11.344;2022-08-05T04:33:09;96443.91;;;21.83;58.87
25855;BME280;13680;49.936;11.344;2022-08-05T04:35:34;96440.88;;;21.96;58.49
25855;BME280;13680;49.936;11.344;2022-08-05T04:37:59;96439.97;;;21.77;59.69
25855;BME280;13680;49.936;11.344;2022-08-05T04:40:25;96440.44;;;21.90;59.19
25855;BME280;13680;49.936;11.344;2022-08-05T04:42:50;96445.94;;;21.94;59.16
25855;BME280;13680;49.936;11.344;2022-08-05T04:45:15;96453.00;;;21.98;59.20
25855;BME280;13680;49.936;11.344;2022-08-05T04:47:41;96443.59;;;21.99;59.26
25855;BME280;13680;49.936;11.344;2022-08-05T04:50:07;96435.03;;;22.04;59.16
25855;BME280;13680;49.936;11.344;2022-08-05T04:52:32;96435.88;;;22.12;59.08
25855;BME280;13680;49.936;11.344;2022-08-05T04:54:58;96437.47;;;22.20;58.71
25855;BME280;13680;49.936;11.344;2022-08-05T04:57:24;96437.91;;;22.30;58.33
25855;BME280;13680;49.936;11.344;2022-08-05T04:59:50;96429.28;;;22.28;58.79
25855;BME280;13680;49.936;11.344;2022-08-05T05:02:15;96421.06;;;22.31;58.36
25855;BME280;13680;49.936;11.344;2022-08-05T05:04:40;96429.66;;;22.26;58.78
25855;BME280;13680;49.936;11.344;2022-08-05T05:07:06;96432.81;;;22.28;58.90
25855;BME280;13680;49.936;11.344;2022-08-05T05:09:31;96438.69;;;22.30;58.99
25855;BME280;13680;49.936;11.344;2022-08-05T05:11:56;96447.72;;;22.34;58.82
25855;BME280;13680;49.936;11.344;2022-08-05T05:14:23;96444.63;;;22.39;59.04
25855;BME280;13680;49.936;11.344;2022-08-05T05:16:49;96450.19;;;22.58;59.21
25855;BME280;13680;49.936;11.344;2022-08-05T05:19:15;96450.22;;;22.76;59.85
25855;BME280;13680;49.936;11.344;2022-08-05T05:21:40;96443.59;;;22.91;59.31
25855;BME280;13680;49.936;11.344;2022-08-05T05:24:06;96454.63;;;23.05;58.91
25855;BME280;13680;49.936;11.344;2022-08-05T05:26:31;96455.84;;;23.19;58.59
25855;BME280;13680;49.936;11.344;2022-08-05T05:28:56;96462.91;;;23.42;57.97
25855;BME280;13680;49.936;11.344;2022-08-05T05:31:22;96472.34;;;23.55;57.46
25855;BME280;13680;49.936;11.344;2022-08-05T05:33:47;96473.91;;;23.67;57.57
25855;BME280;13680;49.936;11.344;2022-08-05T05:36:12;96472.31;;;23.80;57.11
25855;BME280;13680;49.936;11.344;2022-08-05T05:38:38;96483.28;;;23.84;56.76
25855;BME280;13680;49.936;11.344;2022-08-05T05:41:03;96491.13;;;23.89;56.94
25855;BME280;13680;49.936;11.344;2022-08-05T05:43:29;96499.78;;;23.88;57.89
25855;BME280;13680;49.936;11.344;2022-08-05T05:45:54;96506.84;;;23.96;57.81
25855;BME280;13680;49.936;11.344;2022-08-05T05:48:19;96506.84;;;24.10;57.55
25855;BME280;13680;49.936;11.344;2022-08-05T05:50:44;96505.22;;;24.20;57.64
25855;BME280;13680;49.936;11.344;2022-08-05T05:53:13;96517.38;;;24.33;56.74
25855;BME280;13680;49.936;11.344;2022-08-05T05:55:39;96516.16;;;24.49;56.18
25855;BME280;13680;49.936;11.344;2022-08-05T05:58:04;96516.88;;;24.75;55.77
25855;BME280;13680;49.936;11.344;2022-08-05T06:00:30;96505.09;;;24.81;54.52
25855;BME280;13680;49.936;11.344;2022-08-05T06:02:55;96516.44;;;24.94;53.45
25855;BME280;13680;49.936;11.344;2022-08-05T06:05:20;96518.25;;;25.19;52.78
25855;BME280;13680;49.936;11.344;2022-08-05T06:07:46;96530.03;;;25.20;49.00
25855;BME280;13680;49.936;11.344;2022-08-05T06:10:13;96537.06;;;25.31;49.54
25855;BME280;13680;49.936;11.344;2022-08-05T06:12:39;96555.81;;;25.51;47.75
25855;BME280;13680;49.936;11.344;2022-08-05T06:15:05;96550.22;;;25.65;47.11
25855;BME280;13680;49.936;11.344;2022-08-05T06:17:31;96541.34;;;25.92;46.12
25855;BME280;13680;49.936;11.344;2022-08-05T06:19:57;96556.03;;;25.78;46.30
25855;BME280;13680;49.936;11.344;2022-08-05T06:22:25;96561.03;;;25.94;45.95
25855;BME280;13680;49.936;11.344;2022-08-05T06:24:50;96550.75;;;25.98;45.35
25855;BME280;13680;49.936;11.344;2022-08-05T06:27:16;96550.31;;;26.07;45.83
25855;BME280;13680;49.936;11.344;2022-08-05T06:29:41;96542.75;;;26.15;45.05
25855;BME280;13680;49.936;11.344;2022-08-05T06:32:10;96541.44;;;26.30;45.11
25855;BME280;13680;49.936;11.344;2022-08-05T06:34:36;96541.31;;;26.45;46.15
25855;BME280;13680;49.936;11.344;2022-08-05T06:37:02;96552.78;;;26.78;44.54
25855;BME280;13680;49.936;11.344;2022-08-05T06:39:27;96555.38;;;26.92;43.53
25855;BME280;13680;49.936;11.344;2022-08-05T06:41:53;96568.63;;;27.05;43.11
25855;BME280;13680;49.936;11.344;2022-08-05T06:44:18;96561.53;;;26.73;41.35
25855;BME280;13680;49.936;11.344;2022-08-05T06:46:43;96568.78;;;26.90;41.03
25855;BME280;13680;49.936;11.344;2022-08-05T06:49:09;96577.25;;;27.07;41.33
25855;BME280;13680;49.936;11.344;2022-08-05T06:51:35;96586.81;;;27.02;41.07
25855;BME280;13680;49.936;11.344;2022-08-05T06:54:02;96602.59;;;26.98;41.66
25855;BME280;13680;49.936;11.344;2022-08-05T06:56:28;96605.53;;;27.18;41.44
25855;BME280;13680;49.936;11.344;2022-08-05T06:58:54;96609.63;;;27.06;42.08
25855;BME280;13680;49.936;11.344;2022-08-05T07:01:19;96627.03;;;27.00;42.78
25855;BME280;13680;49.936;11.344;2022-08-05T07:03:45;96627.69;;;27.11;43.38
25855;BME280;13680;49.936;11.344;2022-08-05T07:06:10;96629.78;;;27.34;42.97
25855;BME280;13680;49.936;11.344;2022-08-05T07:08:36;96631.91;;;27.81;41.79
25855;BME280;13680;49.936;11.344;2022-08-05T07:11:01;96637.66;;;27.01;43.41
25855;BME280;13680;49.936;11.344;2022-08-05T07:13:28;96631.53;;;27.52;43.11
25855;BME280;13680;49.936;11.344;2022-08-05T07:16:12;96618.16;;;27.50;42.98
25855;BME280;13680;49.936;11.344;2022-08-05T07:18:56;96607.13;;;28.05;42.38
25855;BME280;13680;49.936;11.344;2022-08-05T07:21:21;96623.63;;;27.81;42.12
25855;BME280;13680;49.936;11.344;2022-08-05T07:23:47;96619.66;;;27.82;42.97
25855;BME280;13680;49.936;11.344;2022-08-05T07:26:12;96616.88;;;28.13;42.12
25855;BME280;13680;49.936;11.344;2022-08-05T07:28:38;96632.75;;;28.33;42.42
25855;BME280;13680;49.936;11.344;2022-08-05T07:31:03;96632.25;;;28.14;42.42
25855;BME280;13680;49.936;11.344;2022-08-05T07:33:28;96652.72;;;27.89;43.01
25855;BME280;13680;49.936;11.344;2022-08-05T07:35:54;96641.34;;;28.15;43.10
25855;BME280;13680;49.936;11.344;2022-08-05T07:38:19;96637.53;;;28.52;42.74
25855;BME280;13680;49.936;11.344;2022-08-05T07:40:45;96643.50;;;28.51;42.50
25855;BME280;13680;49.936;11.344;2022-08-05T07:43:10;96640.97;;;28.60;42.46
25855;BME280;13680;49.936;11.344;2022-08-05T07:45:38;96645.78;;;29.00;41.29
25855;BME280;13680;49.936;11.344;2022-08-05T07:48:03;96665.09;;;29.47;40.70
25855;BME280;13680;49.936;11.344;2022-08-05T07:50:29;96654.97;;;28.97;41.38
25855;BME280;13680;49.936;11.344;2022-08-05T07:52:55;96666.50;;;28.71;41.78
25855;BME280;13680;49.936;11.344;2022-08-05T07:55:20;96660.78;;;29.02;41.54
25855;BME280;13680;49.936;11.344;2022-08-05T07:57:46;96661.31;;;29.37;40.79
25855;BME280;13680;49.936;11.344;2022-08-05T08:00:11;96642.94;;;30.00;40.05
25855;BME280;13680;49.936;11.344;2022-08-05T08:02:39;96633.00;;;29.66;40.71
25855;BME280;13680;49.936;11.344;2022-08-05T08:05:04;96642.34;;;30.42;38.22
25855;BME280;13680;49.936;11.344;2022-08-05T08:07:30;96637.69;;;30.56;38.19
25855;BME280;13680;49.936;11.344;2022-08-05T08:09:55;96643.50;;;30.61;38.63
25855;BME280;13680;49.936;11.344;2022-08-05T08:12:21;96635.38;;;30.83;39.23
25855;BME280;13680;49.936;11.344;2022-08-05T08:14:47;96645.66;;;30.70;38.05
25855;BME280;13680;49.936;11.344;2022-08-05T08:17:13;96642.91;;;30.53;37.80
25855;BME280;13680;49.936;11.344;2022-08-05T08:19:39;96658.34;;;31.00;37.07
25855;BME280;13680;49.936;11.344;2022-08-05T08:22:06;96659.69;;;30.63;38.00
25855;BME280;13680;49.936;11.344;2022-08-05T08:24:33;96659.53;;;30.53;36.83
25855;BME280;13680;49.936;11.344;2022-08-05T08:26:59;96657.28;;;30.48;37.30
25855;BME280;13680;49.936;11.344;2022-08-05T08:29:24;96646.59;;;30.80;36.60
25855;BME280;13680;49.936;11.344;2022-08-05T08:31:50;96643.53;;;31.20;36.68
25855;BME280;13680;49.936;11.344;2022-08-05T08:34:21;96646.53;;;31.68;37.30
25855;BME280;13680;49.936;11.344;2022-08-05T08:36:46;96644.03;;;31.44;35.52
25855;BME280;13680;49.936;11.344;2022-08-05T08:39:12;96646.59;;;31.52;35.35
25855;BME280;13680;49.936;11.344;2022-08-05T08:41:40;96641.31;;;31.83;35.24
25855;BME280;13680;49.936;11.344;2022-08-05T08:44:10;96628.53;;;32.59;34.47
25855;BME280;13680;49.936;11.344;2022-08-05T08:46:36;96633.31;;;32.72;33.81
25855;BME280;13680;49.936;11.344;2022-08-05T08:49:03;96635.69;;;33.18;33.68
25855;BME280;13680;49.936;11.344;2022-08-05T08:51:32;96642.31;;;33.11;32.59
25855;BME280;13680;49.936;11.344;2022-08-05T08:53:58;96640.50;;;32.47;32.86
25855;BME280;13680;49.936;11.344;2022-08-05T08:56:24;96645.28;;;32.46;34.34
25855;BME280;13680;49.936;11.344;2022-08-05T08:58:50;96653.41;;;32.15;34.76
25855;BME280;13680;49.936;11.344;2022-08-05T09:01:16;96671.66;;;31.64;35.19
25855;BME280;13680;49.936;11.344;2022-08-05T09:03:44;96675.25;;;31.48;35.37
25855;BME280;13680;49.936;11.344;2022-08-05T09:06:10;96673.16;;;31.10;35.67
25855;BME280;13680;49.936;11.344;2022-08-05T09:08:35;96667.06;;;31.58;35.50
25855;BME280;13680;49.936;11.344;2022-08-05T09:11:01;96683.47;;;31.39;35.42
25855;BME280;13680;49.936;11.344;2022-08-05T09:13:27;96679.47;;;30.65;36.19
25855;BME280;13680;49.936;11.344;2022-08-05T09:15:53;96679.78;;;30.83;35.68
25855;BME280;13680;49.936;11.344;2022-08-05T09:18:18;96680.03;;;31.35;35.72
25855;BME280;13680;49.936;11.344;2022-08-05T09:20:44;96679.44;;;30.98;36.17
25855;BME280;13680;49.936;11.344;2022-08-05T09:23:14;96676.34;;;31.38;36.01
25855;BME280;13680;49.936;11.344;2022-08-05T09:25:45;96672.25;;;31.43;35.58
25855;BME280;13680;49.936;11.344;2022-08-05T09:28:19;96669.56;;;31.94;36.01
25855;BME280;13680;49.936;11.344;2022-08-05T09:31:01;96660.56;;;32.16;35.31
25855;BME280;13680;49.936;11.344;2022-08-05T09:33:30;96662.16;;;32.78;34.61
25855;BME280;13680;49.936;11.344;2022-08-05T09:36:01;96653.81;;;33.00;34.27
25855;BME280;13680;49.936;11.344;2022-08-05T09:38:27;96667.03;;;33.75;32.69
25855;BME280;13680;49.936;11.344;2022-08-05T09:40:53;96665.03;;;32.87;32.27
25855;BME280;13680;49.936;11.344;2022-08-05T09:43:30;96655.91;;;33.09;33.21
25855;BME280;13680;49.936;11.344;2022-08-05T09:45:56;96665.19;;;33.50;32.57
25855;BME280;13680;49.936;11.344;2022-08-05T09:48:31;96648.81;;;33.84;32.38
25855;BME280;13680;49.936;11.344;2022-08-05T09:51:01;96648.88;;;33.39;31.70
25855;BME280;13680;49.936;11.344;2022-08-05T09:53:28;96641.78;;;33.48;31.75
25855;BME280;13680;49.936;11.344;2022-08-05T09:55:58;96636.75;;;33.87;30.50
25855;BME280;13680;49.936;11.344;2022-08-05T09:58:25;96637.28;;;33.72;30.50
25855;BME280;13680;49.936;11.344;2022-08-05T10:03:20;96638.53;;;34.12;29.92
25855;BME280;13680;49.936;11.344;2022-08-05T10:05:59;96633.69;;;33.94;30.02
25855;BME280;13680;49.936;11.344;2022-08-05T10:08:24;96637.56;;;33.97;29.92
25855;BME280;13680;49.936;11.344;2022-08-05T10:10:50;96631.63;;;33.85;28.82
25855;BME280;13680;49.936;11.344;2022-08-05T10:13:34;96619.28;;;34.73;28.58
25855;BME280;13680;49.936;11.344;2022-08-05T10:16:03;96621.91;;;34.96;28.31
25855;BME280;13680;49.936;11.344;2022-08-05T10:18:30;96617.44;;;35.07;28.13
25855;BME280;13680;49.936;11.344;2022-08-05T10:21:02;96616.31;;;35.14;27.06
25855;BME280;13680;49.936;11.344;2022-08-05T10:23:33;96617.97;;;35.49;26.84
25855;BME280;13680;49.936;11.344;2022-08-05T10:26:04;96619.53;;;35.93;26.02
25855;BME280;13680;49.936;11.344;2022-08-05T10:28:30;96620.63;;;35.34;26.42
25855;BME280;13680;49.936;11.344;2022-08-05T10:30:57;96609.66;;;34.93;26.23
25855;BME280;13680;49.936;11.344;2022-08-05T10:33:24;96612.91;;;34.82;26.42
25855;BME280;13680;49.936;11.344;2022-08-05T10:35:51;96610.44;;;35.73;26.01
25855;BME280;13680;49.936;11.344;2022-08-05T10:38:19;96609.41;;;36.29;25.49
25855;BME280;13680;49.936;11.344;2022-08-05T10:45:59;96609.47;;;35.43;26.80
25855;BME280;13680;49.936;11.344;2022-08-05T10:48:29;96617.31;;;35.63;26.32
25855;BME280;13680;49.936;11.344;2022-08-05T10:50:57;96633.44;;;35.78;25.50
25855;BME280;13680;49.936;11.344;2022-08-05T10:53:42;96622.31;;;36.02;25.34
25855;BME280;13680;49.936;11.344;2022-08-05T10:56:16;96619.88;;;34.78;26.45
25855;BME280;13680;49.936;11.344;2022-08-05T11:01:17;96611.56;;;34.87;26.87
25855;BME280;13680;49.936;11.344;2022-08-05T11:04:04;96612.19;;;35.62;26.02
25855;BME280;13680;49.936;11.344;2022-08-05T11:06:31;96611.50;;;35.24;24.96
25855;BME280;13680;49.936;11.344;2022-08-05T11:09:16;96615.09;;;35.15;24.52
25855;BME280;13680;49.936;11.344;2022-08-05T11:11:42;96604.53;;;34.45;26.37
25855;BME280;13680;49.936;11.344;2022-08-05T11:14:10;96620.69;;;34.09;26.25
25855;BME280;13680;49.936;11.344;2022-08-05T11:16:36;96621.56;;;34.38;26.95
25855;BME280;13680;49.936;11.344;2022-08-05T11:19:29;96608.88;;;35.11;25.57
25855;BME280;13680;49.936;11.344;2022-08-05T11:21:56;96620.53;;;35.00;25.93
25855;BME280;13680;49.936;11.344;2022-08-05T11:24:44;96620.97;;;35.27;25.68
25855;BME280;13680;49.936;11.344;2022-08-05T11:27:29;96620.22;;;34.80;26.57
25855;BME280;13680;49.936;11.344;2022-08-05T11:29:59;96626.56;;;35.08;26.46
25855;BME280;13680;49.936;11.344;2022-08-05T11:32:26;96627.97;;;35.03;25.53
25855;BME280;13680;49.936;11.344;2022-08-05T11:34:52;96624.97;;;35.35;26.20
25855;BME280;13680;49.936;11.344;2022-08-05T11:37:41;96621.28;;;35.19;26.00
25855;BME280;13680;49.936;11.344;2022-08-05T11:40:06;96615.88;;;35.86;24.96
25855;BME280;13680;49.936;11.344;2022-08-05T11:42:33;96612.41;;;35.82;26.23
25855;BME280;13680;49.936;11.344;2022-08-05T11:45:03;96609.44;;;35.52;25.21
25855;BME280;13680;49.936;11.344;2022-08-05T11:47:31;96609.22;;;35.65;25.90
25855;BME280;13680;49.936;11.344;2022-08-05T11:49:57;96617.94;;;35.67;24.99
25855;BME280;13680;49.936;11.344;2022-08-05T11:52:25;96609.66;;;34.93;26.20
25855;BME280;13680;49.936;11.344;2022-08-05T11:54:51;96608.88;;;35.02;25.81
25855;BME280;13680;49.936;11.344;2022-08-05T11:57:17;96605.91;;;34.50;26.76
25855;BME280;13680;49.936;11.344;2022-08-05T11:59:43;96608.88;;;34.65;26.45
25855;BME280;13680;49.936;11.344;2022-08-05T12:02:08;96615.59;;;34.08;27.17
25855;BME280;13680;49.936;11.344;2022-08-05T12:04:47;96618.72;;;34.19;27.16
25855;BME280;13680;49.936;11.344;2022-08-05T12:07:16;96610.88;;;34.55;26.85
25855;BME280;13680;49.936;11.344;2022-08-05T12:09:51;96615.22;;;35.21;26.17
25855;BME280;13680;49.936;11.344;2022-08-05T12:12:25;96613.63;;;36.00;25.16
25855;BME280;13680;49.936;11.344;2022-08-05T12:14:53;96602.34;;;36.67;24.21
25855;BME280;13680;49.936;11.344;2022-08-05T12:17:18;96611.91;;;36.75;25.18
25855;BME280;13680;49.936;11.344;2022-08-05T12:19:52;96595.69;;;37.48;24.08
25855;BME280;13680;49.936;11.344;2022-08-05T12:22:20;96609.78;;;37.39;23.55
25855;BME280;13680;49.936;11.344;2022-08-05T12:24:48;96610.97;;;37.32;23.43
25855;BME280;13680;49.936;11.344;2022-08-05T12:27:21;96617.66;;;36.96;23.90
25855;BME280;13680;49.936;11.344;2022-08-05T12:30:04;96608.72;;;37.66;23.86
25855;BME280;13680;49.936;11.344;2022-08-05T12:32:46;96612.97;;;38.27;23.10
25855;BME280;13680;49.936;11.344;2022-08-05T12:35:12;96605.91;;;37.66;22.39
25855;BME280;13680;49.936;11.344;2022-08-05T12:37:40;96609.28;;;37.71;23.13
25855;BME280;13680;49.936;11.344;2022-08-05T12:40:09;96600.13;;;37.55;22.74
25855;BME280;13680;49.936;11.344;2022-08-05T12:42:35;96606.56;;;37.01;22.67
25855;BME280;13680;49.936;11.344;2022-08-05T12:45:10;96606.88;;;36.64;23.62
25855;BME280;13680;49.936;11.344;2022-08-05T12:47:36;96599.72;;;36.63;23.59
25855;BME280;13680;49.936;11.344;2022-08-05T12:50:13;96595.66;;;37.18;23.05
25855;BME280;13680;49.936;11.344;2022-08-05T12:52:38;96598.25;;;37.07;23.79
25855;BME280;13680;49.936;11.344;2022-08-05T12:57:42;96597.38;;;37.01;23.41
25855;BME280;13680;49.936;11.344;2022-08-05T13:00:18;96590.75;;;38.09;22.99
25855;BME280;13680;49.936;11.344;2022-08-05T13:02:44;96593.94;;;38.37;22.26
25855;BME280;13680;49.936;11.344;2022-08-05T13:05:10;96594.72;;;38.79;21.70
25855;BME280;13680;49.936;11.344;2022-08-05T13:07:38;96593.72;;;39.35;21.22
25855;BME280;13680;49.936;11.344;2022-08-05T13:10:09;96576.44;;;38.27;22.26
25855;BME280;13680;49.936;11.344;2022-08-05T13:12:39;96594.97;;;38.81;21.71
25855;BME280;13680;49.936;11.344;2022-08-05T13:15:05;96586.63;;;39.39;21.51
25855;BME280;13680;49.936;11.344;2022-08-05T13:17:34;96597.38;;;39.15;20.98
25855;BME280;13680;49.936;11.344;2022-08-05T13:20:05;96590.84;;;39.55;21.00
25855;BME280;13680;49.936;11.344;2022-08-05T13:22:33;96584.13;;;39.79;21.00